Time;durP1;ratioP1;P1;durP2;ratioP2;P2;SDS_P1;SDS_P2;PMS_P1;PMS_P2;Temp;Humidity;BMP_temperature;BMP_pressure;BME280_temperature;BME280_humidity;BME280_pressure;Samples;Min_cycle;Max_cycle;Signal;HPM_P1;HPM_P2
2023/12/22 00:02:23;;;;;;;;;0.00;0.00;;;;;6.41;87.31;98221.88;5075827;28;8824;-56
2023/12/22 00:04:51;;;;;;;;;0.00;0.00;;;;;6.40;87.21;98235.22;5075716;28;8836;-57
2023/12/22 00:07:20;;;;;;;;;0.50;0.00;;;;;6.36;87.17;98233.84;5075526;28;8856;-55
2023/12/22 00:09:49;;;;;;;;;0.00;0.00;;;;;6.29;87.13;98227.44;5075080;28;8905;-56
2023/12/22 00:12:16;;;;;;;;;0.00;0.00;;;;;6.24;87.27;98259.56;5074969;28;8990;-56
2023/12/22 00:14:44;;;;;;;;;0.75;0.75;;;;;6.22;87.25;98263.31;5075590;28;8846;-56
2023/12/22 00:17:12;;;;;;;;;0.00;0.00;;;;;6.19;87.60;98263.56;5075199;28;8901;-56
2023/12/22 00:19:40;;;;;;;;;0.00;0.00;;;;;6.16;87.28;98258.56;5091703;28;8814;-57
2023/12/22 00:22:08;;;;;;;;;0.00;0.00;;;;;6.16;87.20;98258.56;5095512;28;8822;-57
2023/12/22 00:24:36;;;;;;;;;0.25;0.25;;;;;6.13;87.28;98250.91;5094990;28;8940;-55
2023/12/22 00:27:04;;;;;;;;;0.00;0.00;;;;;6.10;87.38;98259.13;5097140;28;8813;-55
2023/12/22 00:29:35;;;;;;;;;0.00;0.00;;;;;6.07;86.93;98267.31;5097197;28;8818;-57
2023/12/22 00:32:04;;;;;;;;;0.00;0.00;;;;;6.00;87.19;98267.00;5105603;28;8808;-58
2023/12/22 00:34:35;;;;;;;;;0.00;0.00;;;;;5.95;87.28;98277.16;5105747;28;8915;-57
2023/12/22 00:37:05;;;;;;;;;0.00;0.00;;;;;5.91;87.44;98274.94;5108501;28;8890;-57
2023/12/22 00:39:34;;;;;;;;;0.50;0.00;;;;;5.91;87.10;98302.16;5119235;28;8843;-56
2023/12/22 00:42:04;;;;;;;;;0.00;0.00;;;;;5.92;87.28;98295.91;5118402;28;8904;-55
2023/12/22 00:44:31;;;;;;;;;0.25;0.00;;;;;5.93;86.96;98305.50;5118894;28;8828;-55
2023/12/22 00:47:00;;;;;;;;;0.00;0.00;;;;;5.95;87.05;98305.38;5119017;28;8848;-55
2023/12/22 00:49:28;;;;;;;;;0.00;0.00;;;;;5.95;87.40;98292.16;5103732;28;8804;-57
2023/12/22 00:51:55;;;;;;;;;1.00;1.00;;;;;5.97;87.24;98308.69;5119243;28;8839;-57
2023/12/22 00:54:24;;;;;;;;;0.00;0.00;;;;;6.01;86.97;98315.41;5118996;28;8827;-56
2023/12/22 00:56:52;;;;;;;;;0.00;0.00;;;;;6.03;86.80;98313.47;5118785;28;8816;-56
2023/12/22 00:59:20;;;;;;;;;0.00;0.00;;;;;6.02;86.71;98314.44;5117696;28;8864;-56
2023/12/22 01:01:48;;;;;;;;;0.50;0.00;;;;;6.01;86.75;98310.13;5118705;28;8828;-56
2023/12/22 01:04:16;;;;;;;;;0.00;0.00;;;;;6.01;86.84;98307.47;5119376;28;8808;-56
2023/12/22 01:06:44;;;;;;;;;0.00;0.00;;;;;6.00;86.71;98309.28;5085234;28;8870;-57
2023/12/22 01:09:12;;;;;;;;;0.00;0.00;;;;;6.00;87.16;98301.34;5078540;28;8828;-57
2023/12/22 01:11:40;;;;;;;;;0.50;0.50;;;;;5.99;86.72;98309.44;5078388;28;8950;-55
2023/12/22 01:14:08;;;;;;;;;0.00;0.00;;;;;5.99;86.82;98307.59;5077416;28;8821;-57
2023/12/22 01:16:35;;;;;;;;;0.00;0.00;;;;;6.00;86.53;98317.19;5076475;28;8856;-57
2023/12/22 01:19:03;;;;;;;;;0.00;0.00;;;;;6.01;86.99;98323.34;5076769;28;8836;-56
2023/12/22 01:21:31;;;;;;;;;0.00;0.00;;;;;6.00;86.34;98321.66;5077892;28;8835;-55
2023/12/22 01:23:59;;;;;;;;;0.00;0.00;;;;;6.00;86.58;98314.56;5078757;28;8828;-56
2023/12/22 01:26:26;;;;;;;;;0.00;0.00;;;;;6.03;86.70;98300.25;5088064;28;8814;-57
2023/12/22 01:28:54;;;;;;;;;0.50;0.25;;;;;6.02;86.84;98320.56;5098407;28;8891;-56
2023/12/22 01:31:22;;;;;;;;;1.00;0.00;;;;;6.05;86.78;98330.00;5097653;28;8829;-56
2023/12/22 01:33:50;;;;;;;;;0.50;0.00;;;;;6.06;86.85;98323.78;5096607;28;9478;-57
2023/12/22 01:36:18;;;;;;;;;0.00;0.00;;;;;6.06;87.04;98331.69;5097008;28;8810;-56
2023/12/22 01:38:46;;;;;;;;;0.00;0.00;;;;;6.07;86.43;98326.25;5097140;28;8818;-57
2023/12/22 01:41:13;;;;;;;;;0.00;0.00;;;;;6.10;86.89;98346.31;5097648;28;8972;-57
2023/12/22 01:43:41;;;;;;;;;0.00;0.00;;;;;6.13;86.35;98338.94;5100974;28;8879;-55
2023/12/22 01:46:09;;;;;;;;;0.00;0.00;;;;;6.17;86.46;98355.38;5099970;28;8806;-56
2023/12/22 01:48:37;;;;;;;;;0.00;0.00;;;;;6.21;86.34;98338.28;5111691;28;8804;-57
2023/12/22 01:51:05;;;;;;;;;0.00;0.00;;;;;6.24;86.80;98346.78;5116459;28;8898;-55
2023/12/22 01:53:33;;;;;;;;;0.00;0.00;;;;;6.26;86.39;98328.13;5097279;28;8842;-55
2023/12/22 01:56:04;;;;;;;;;0.00;0.00;;;;;6.28;86.38;98332.31;5094731;28;8844;-57
2023/12/22 01:58:32;;;;;;;;;0.00;0.00;;;;;6.33;86.18;98360.97;5076579;28;9512;-55
2023/12/22 02:01:00;;;;;;;;;0.50;0.50;;;;;6.37;85.81;98342.06;5076849;28;8840;-55
2023/12/22 02:03:27;;;;;;;;;0.00;0.00;;;;;6.38;86.07;98348.22;5083670;28;8955;-56
2023/12/22 02:05:55;;;;;;;;;0.00;0.00;;;;;6.38;85.91;98327.88;5117724;28;8831;-55
2023/12/22 02:08:23;;;;;;;;;0.00;0.00;;;;;6.39;85.87;98339.31;5117688;28;8913;-56
2023/12/22 02:10:51;;;;;;;;;2.00;1.00;;;;;6.41;85.69;98338.19;5117419;28;8811;-57
2023/12/22 02:13:18;;;;;;;;;0.00;0.00;;;;;6.42;85.81;98344.31;5107747;28;8836;-57
2023/12/22 02:15:46;;;;;;;;;0.00;0.00;;;;;6.35;86.00;98343.16;5076881;28;9506;-57
2023/12/22 02:18:14;;;;;;;;;1.00;0.50;;;;;6.27;85.79;98333.28;5077382;28;8816;-58
2023/12/22 02:20:43;;;;;;;;;0.00;0.00;;;;;6.26;86.14;98344.00;5076532;28;8828;-58
2023/12/22 02:23:11;;;;;;;;;0.00;0.00;;;;;6.24;86.00;98340.66;5076793;28;8848;-58
2023/12/22 02:25:39;;;;;;;;;0.00;0.00;;;;;6.24;85.36;98328.28;5076708;28;8828;-58
2023/12/22 02:28:07;;;;;;;;;0.00;0.00;;;;;6.24;86.09;98320.38;5077160;28;8842;-57
2023/12/22 02:30:34;;;;;;;;;0.00;0.00;;;;;6.24;86.02;98324.78;5077671;28;8828;-57
2023/12/22 02:33:03;;;;;;;;;0.00;0.00;;;;;6.24;85.82;98327.44;5076736;28;8832;-57
2023/12/22 02:35:31;;;;;;;;;0.00;0.00;;;;;6.23;85.74;98345.09;5076556;28;8844;-56
2023/12/22 02:37:59;;;;;;;;;0.00;0.00;;;;;6.24;85.70;98351.22;5076662;28;8828;-56
2023/12/22 02:40:27;;;;;;;;;0.00;0.00;;;;;6.21;85.46;98357.59;5083876;28;8818;-56
2023/12/22 02:42:54;;;;;;;;;0.00;0.00;;;;;6.18;85.40;98365.81;5097159;28;9724;-57
2023/12/22 02:45:22;;;;;;;;;0.00;0.00;;;;;6.16;85.54;98351.06;5096191;28;8834;-56
2023/12/22 02:47:50;;;;;;;;;0.00;0.00;;;;;6.11;85.36;98348.81;5095841;28;8836;-58
2023/12/22 02:50:18;;;;;;;;;0.00;0.00;;;;;6.08;85.38;98350.91;5100084;28;8910;-56
2023/12/22 02:52:46;;;;;;;;;0.00;0.00;;;;;6.05;85.77;98362.56;5105036;28;8796;-56
2023/12/22 02:55:14;;;;;;;;;0.00;0.00;;;;;6.02;85.52;98357.56;5116826;28;8828;-56
2023/12/22 02:57:42;;;;;;;;;0.00;0.00;;;;;5.99;85.86;98362.25;5102071;28;8830;-57
2023/12/22 03:00:09;;;;;;;;;0.00;0.00;;;;;5.94;85.74;98364.44;5096020;28;8857;-56
2023/12/22 03:02:38;;;;;;;;;0.00;0.00;;;;;5.90;85.20;98357.75;5096038;28;8833;-57
2023/12/22 03:05:05;;;;;;;;;0.00;0.00;;;;;5.86;85.14;98354.53;5085152;28;9470;-57
2023/12/22 03:07:33;;;;;;;;;0.50;0.00;;;;;5.87;85.56;98361.50;5075786;28;8828;-56
2023/12/22 03:10:01;;;;;;;;;0.00;0.00;;;;;5.89;85.63;98379.84;5107215;28;8900;-55
2023/12/22 03:12:29;;;;;;;;;0.00;0.00;;;;;5.91;85.38;98380.56;5116665;28;8846;-55
2023/12/22 03:14:57;;;;;;;;;0.00;0.00;;;;;5.94;85.50;98382.94;5116786;28;8956;-56
2023/12/22 03:17:25;;;;;;;;;0.00;0.00;;;;;5.95;85.37;98374.03;5116358;28;8834;-58
2023/12/22 03:19:53;;;;;;;;;0.00;0.00;;;;;5.94;85.59;98375.88;5116820;28;9577;-56
2023/12/22 03:22:21;;;;;;;;;0.00;0.00;;;;;5.94;85.18;98370.59;5089411;28;8897;-56
2023/12/22 03:24:48;;;;;;;;;0.00;0.00;;;;;5.93;85.39;98362.78;5076200;28;8820;-56
2023/12/22 03:27:17;;;;;;;;;0.00;0.00;;;;;5.94;85.26;98385.59;5075808;28;8832;-56
2023/12/22 03:29:45;;;;;;;;;0.00;0.00;;;;;5.96;85.79;98365.16;5076122;28;8844;-56
2023/12/22 03:32:13;;;;;;;;;0.00;0.00;;;;;5.99;85.11;98372.81;5075944;28;8844;-55
2023/12/22 03:34:41;;;;;;;;;0.00;0.00;;;;;6.01;85.23;98362.97;5075740;28;8827;-56
2023/12/22 03:37:09;;;;;;;;;0.00;0.00;;;;;6.03;85.03;98368.94;5075688;28;8831;-57
2023/12/22 03:39:36;;;;;;;;;0.00;0.00;;;;;6.05;84.89;98367.84;5076340;28;9000;-58
2023/12/22 03:42:04;;;;;;;;;0.00;0.00;;;;;6.09;84.79;98368.41;5075580;28;8867;-57
2023/12/22 03:44:32;;;;;;;;;0.00;0.00;;;;;6.08;84.43;98372.84;5075881;28;8840;-57
2023/12/22 03:46:59;;;;;;;;;0.00;0.00;;;;;6.08;84.49;98387.88;5095046;28;9510;-56
2023/12/22 03:49:27;;;;;;;;;0.00;0.00;;;;;6.09;84.47;98384.28;5095407;28;8890;-56
2023/12/22 03:51:55;;;;;;;;;0.00;0.00;;;;;6.09;84.47;98365.78;5095219;28;8815;-58
2023/12/22 03:54:23;;;;;;;;;0.00;0.00;;;;;6.08;84.74;98370.22;5094743;28;8849;-57
2023/12/22 03:56:51;;;;;;;;;0.00;0.00;;;;;6.10;84.34;98384.16;5094918;28;8818;-56
2023/12/22 03:59:19;;;;;;;;;0.00;0.00;;;;;6.13;84.26;98380.38;5095851;28;8828;-56
2023/12/22 04:01:47;;;;;;;;;0.00;0.00;;;;;6.16;84.06;98380.13;5098133;28;8818;-57
2023/12/22 04:04:16;;;;;;;;;0.00;0.00;;;;;6.12;83.53;98373.41;5099859;28;8838;-56
2023/12/22 04:06:44;;;;;;;;;0.00;0.00;;;;;6.09;84.35;98378.97;5099103;28;8837;-55
2023/12/22 04:09:11;;;;;;;;;0.00;0.00;;;;;6.03;83.83;98372.44;5103378;28;8825;-57
2023/12/22 04:11:41;;;;;;;;;0.00;0.00;;;;;5.90;84.04;98385.00;5102965;28;8842;-57
2023/12/22 04:14:09;;;;;;;;;0.00;0.00;;;;;5.74;84.03;98395.19;5080005;28;8958;-58
2023/12/22 04:16:36;;;;;;;;;0.00;0.00;;;;;5.60;84.66;98407.84;5094186;28;8822;-56
2023/12/22 04:19:04;;;;;;;;;0.00;0.00;;;;;5.51;85.17;98406.84;5120033;28;8831;-57
2023/12/22 04:21:34;;;;;;;;;0.00;0.00;;;;;5.43;85.39;98400.53;5119864;28;8819;-56
2023/12/22 04:24:02;;;;;;;;;0.00;0.00;;;;;5.37;85.23;98408.94;5120335;28;8836;-57
2023/12/22 04:26:30;;;;;;;;;0.00;0.00;;;;;5.32;85.32;98414.59;5119784;28;9485;-56
2023/12/22 04:28:58;;;;;;;;;0.00;0.00;;;;;5.28;85.44;98389.44;5108863;28;8817;-56
2023/12/22 04:31:25;;;;;;;;;0.00;0.00;;;;;5.26;85.81;98398.44;5079015;28;8970;-56
2023/12/22 04:33:53;;;;;;;;;0.00;0.00;;;;;5.22;85.76;98395.22;5078825;28;8855;-56
2023/12/22 04:36:21;;;;;;;;;0.00;0.00;;;;;5.18;85.28;98400.88;5078658;28;8848;-58
2023/12/22 04:38:49;;;;;;;;;0.00;0.00;;;;;5.11;85.86;98397.94;5078783;28;8836;-54
2023/12/22 04:41:17;;;;;;;;;0.00;0.00;;;;;5.05;86.23;98405.50;5078678;28;8844;-55
2023/12/22 04:43:45;;;;;;;;;0.00;0.00;;;;;5.01;86.46;98419.91;5078838;28;8820;-57
2023/12/22 04:46:13;;;;;;;;;0.00;0.00;;;;;4.99;86.63;98421.81;5079326;28;8871;-55
2023/12/22 04:48:40;;;;;;;;;0.00;0.00;;;;;4.98;86.42;98410.44;5078604;28;9748;-55
2023/12/22 04:51:08;;;;;;;;;0.00;0.00;;;;;4.97;86.34;98402.66;5078719;28;8839;-57
2023/12/22 04:53:36;;;;;;;;;0.00;0.00;;;;;4.95;86.79;98404.56;5078472;28;8816;-56
2023/12/22 04:56:04;;;;;;;;;0.00;0.00;;;;;4.94;86.53;98402.91;5078398;28;8844;-55
2023/12/22 04:58:32;;;;;;;;;0.00;0.00;;;;;4.95;86.97;98420.41;5078021;28;8828;-56
2023/12/22 05:00:59;;;;;;;;;0.00;0.00;;;;;4.94;86.61;98419.53;5078086;28;8836;-57
2023/12/22 05:03:27;;;;;;;;;0.00;0.00;;;;;4.93;87.08;98415.25;5078865;28;8827;-57
2023/12/22 05:05:55;;;;;;;;;0.00;0.00;;;;;4.91;86.95;98426.88;5091125;28;9491;-56
2023/12/22 05:08:23;;;;;;;;;0.00;0.00;;;;;4.91;86.74;98434.78;5098901;28;8906;-56
2023/12/22 05:10:51;;;;;;;;;0.00;0.00;;;;;4.89;87.27;98426.16;5097808;28;8850;-55
2023/12/22 05:13:19;;;;;;;;;0.00;0.00;;;;;4.89;86.98;98418.25;5094009;28;8949;-56
2023/12/22 05:15:47;;;;;;;;;0.00;0.00;;;;;4.88;86.93;98433.22;5097817;28;8816;-56
2023/12/22 05:18:15;;;;;;;;;0.00;0.00;;;;;4.89;86.79;98436.72;5101407;28;8816;-57
2023/12/22 05:20:43;;;;;;;;;0.00;0.00;;;;;4.90;87.04;98439.25;5099467;28;8850;-56
2023/12/22 05:23:11;;;;;;;;;0.00;0.00;;;;;4.91;86.92;98434.78;5086178;28;8821;-57
2023/12/22 05:25:38;;;;;;;;;0.00;0.00;;;;;4.92;87.19;98441.72;5118648;28;8839;-56
2023/12/22 05:28:06;;;;;;;;;0.00;0.00;;;;;4.94;86.75;98445.09;5118858;28;8909;-57
2023/12/22 05:30:34;;;;;;;;;0.00;0.00;;;;;4.97;86.99;98445.69;5118223;28;8825;-55
2023/12/22 05:33:02;;;;;;;;;0.00;0.00;;;;;5.01;86.95;98448.91;5118433;28;8839;-55
2023/12/22 05:35:30;;;;;;;;;0.00;0.00;;;;;5.04;87.24;98451.28;5112438;28;8885;-57
2023/12/22 05:37:57;;;;;;;;;0.00;0.00;;;;;5.07;86.57;98445.75;5088044;28;9502;-55
2023/12/22 05:40:25;;;;;;;;;0.00;0.00;;;;;5.10;86.83;98445.53;5077251;28;8818;-56
2023/12/22 05:42:53;;;;;;;;;0.00;0.00;;;;;5.12;86.99;98446.22;5077231;28;8943;-56
2023/12/22 05:45:21;;;;;;;;;0.00;0.00;;;;;5.14;86.62;98450.44;5077071;28;8831;-57
2023/12/22 05:47:48;;;;;;;;;0.00;0.00;;;;;5.16;86.93;98445.84;5077262;28;8837;-56
2023/12/22 05:50:17;;;;;;;;;0.00;0.00;;;;;5.22;86.79;98447.16;5077038;28;8826;-57
2023/12/22 05:52:45;;;;;;;;;0.00;0.00;;;;;5.26;86.30;98462.59;5077189;28;8829;-57
2023/12/22 05:55:13;;;;;;;;;0.00;0.00;;;;;5.29;86.70;98470.28;5077603;28;8866;-57
2023/12/22 05:57:41;;;;;;;;;0.00;0.00;;;;;5.32;86.63;98462.09;5076809;28;9570;-55
2023/12/22 06:00:10;;;;;;;;;0.00;0.00;;;;;5.35;86.29;98471.56;5075933;28;8834;-56
2023/12/22 06:02:38;;;;;;;;;0.00;0.00;;;;;5.35;86.49;98466.28;5075974;28;8841;-55
2023/12/22 06:05:06;;;;;;;;;0.00;0.00;;;;;5.40;86.41;98490.53;5076223;28;8830;-56
2023/12/22 06:07:33;;;;;;;;;0.00;0.00;;;;;5.44;86.27;98481.38;5076017;28;8842;-56
2023/12/22 06:10:01;;;;;;;;;0.00;0.00;;;;;5.48;86.83;98486.25;5076232;28;8826;-56
2023/12/22 06:12:29;;;;;;;;;0.00;0.00;;;;;5.52;86.27;98489.50;5085921;28;8832;-55
2023/12/22 06:14:56;;;;;;;;;0.00;0.00;;;;;5.57;86.06;98484.69;5097025;28;8952;-56
2023/12/22 06:17:24;;;;;;;;;0.00;0.00;;;;;5.60;86.14;98477.34;5096092;28;8863;-56
2023/12/22 06:19:52;;;;;;;;;1.00;1.00;;;;;5.63;85.81;98489.47;5096331;28;8824;-57
2023/12/22 06:22:21;;;;;;;;;0.00;0.00;;;;;5.67;86.03;98497.00;5096043;28;9511;-57
2023/12/22 06:24:48;;;;;;;;;0.00;0.00;;;;;5.69;86.08;98499.53;5095137;28;8830;-55
2023/12/22 06:27:16;;;;;;;;;0.25;0.00;;;;;5.70;86.19;98488.00;5096607;28;8960;-57
2023/12/22 06:29:44;;;;;;;;;0.00;0.00;;;;;5.73;86.17;98498.28;5095702;28;9529;-56
2023/12/22 06:32:12;;;;;;;;;0.00;0.00;;;;;5.72;86.12;98501.91;5096374;28;8829;-56
2023/12/22 06:34:40;;;;;;;;;0.00;0.00;;;;;5.70;85.53;98491.44;5095547;28;8825;-58
2023/12/22 06:37:08;;;;;;;;;0.00;0.00;;;;;5.72;86.21;98499.25;5095088;28;8814;-57
2023/12/22 06:39:36;;;;;;;;;0.25;0.00;;;;;5.70;86.07;98502.00;5095671;28;8841;-58
2023/12/22 06:42:06;;;;;;;;;0.00;0.00;;;;;5.70;86.26;98493.28;5100830;28;8824;-58
2023/12/22 06:44:34;;;;;;;;;0.00;0.00;;;;;5.73;85.95;98490.34;5106127;28;8847;-58
2023/12/22 06:47:01;;;;;;;;;0.50;0.50;;;;;5.74;86.48;98499.94;5077796;28;8816;-58
2023/12/22 06:49:29;;;;;;;;;0.00;0.00;;;;;5.75;86.47;98496.34;5109689;28;8824;-58
2023/12/22 06:51:57;;;;;;;;;0.25;0.00;;;;;5.76;86.02;98490.13;5116857;28;8838;-57
2023/12/22 06:54:25;;;;;;;;;0.00;0.00;;;;;5.76;86.20;98490.94;5116459;28;8831;-56
2023/12/22 06:56:55;;;;;;;;;3.25;1.50;;;;;5.76;86.41;98504.16;5116727;28;8961;-55
2023/12/22 06:59:22;;;;;;;;;0.50;0.50;;;;;5.78;85.87;98499.56;5115854;28;8828;-55
2023/12/22 07:01:51;;;;;;;;;0.50;0.50;;;;;5.81;85.97;98485.31;5096217;28;8819;-57
2023/12/22 07:04:35;;;;;;;;;0.00;0.00;;;;;5.85;85.83;98498.13;5074879;28;8851;-58
2023/12/22 07:07:04;;;;;;;;;0.00;0.00;;;;;5.86;86.24;98491.06;5075252;28;8899;-57
2023/12/22 07:09:30;;;;;;;;;0.00;0.00;;;;;5.86;85.95;98483.13;5075308;28;8824;-56
2023/12/22 07:11:58;;;;;;;;;0.00;0.00;;;;;5.87;86.13;98479.53;5074254;28;8859;-57
2023/12/22 07:14:26;;;;;;;;;0.00;0.00;;;;;5.89;85.44;98477.56;5073708;28;8829;-57
2023/12/22 07:16:54;;;;;;;;;1.00;0.00;;;;;5.90;85.90;98471.31;5073622;28;8862;-58
2023/12/22 07:19:22;;;;;;;;;0.00;0.00;;;;;5.91;85.89;98483.59;5074291;28;8832;-56
2023/12/22 07:21:50;;;;;;;;;3.00;3.00;;;;;5.89;85.93;98485.50;5074448;28;8941;-58
2023/12/22 07:24:18;;;;;;;;;0.00;0.00;;;;;5.86;86.18;98483.13;5074698;28;8937;-57
2023/12/22 07:26:46;;;;;;;;;0.25;0.00;;;;;5.79;86.42;98476.66;5074811;28;8831;-58
2023/12/22 07:29:14;;;;;;;;;0.00;0.00;;;;;5.73;86.07;98475.38;5075272;28;8824;-58
2023/12/22 07:31:42;;;;;;;;;0.00;0.00;;;;;5.69;86.12;98475.75;5075043;28;8832;-57
2023/12/22 07:34:12;;;;;;;;;0.00;0.00;;;;;5.66;86.85;98487.41;5075410;28;8897;-57
2023/12/22 07:36:40;;;;;;;;;0.00;0.00;;;;;5.63;86.45;98482.34;5079869;28;8818;-58
2023/12/22 07:39:18;;;;;;;;;0.50;0.50;;;;;5.62;86.44;98479.88;5095390;28;8827;-55
2023/12/22 07:41:46;;;;;;;;;0.00;0.00;;;;;5.62;86.66;98480.69;5095439;28;8838;-56
2023/12/22 07:44:14;;;;;;;;;0.00;0.00;;;;;5.63;86.79;98482.34;5093848;28;8825;-56
2023/12/22 07:46:41;;;;;;;;;0.00;0.00;;;;;5.63;86.63;98487.63;5095255;28;9592;-57
2023/12/22 07:49:10;;;;;;;;;0.00;0.00;;;;;5.64;86.76;98486.69;5094000;28;8841;-57
2023/12/22 07:51:38;;;;;;;;;0.00;0.00;;;;;5.65;86.92;98514.78;5093270;28;8817;-57
2023/12/22 07:54:08;;;;;;;;;1.00;1.00;;;;;5.66;86.93;98487.41;5094591;28;8869;-56
2023/12/22 07:56:36;;;;;;;;;0.00;0.00;;;;;5.68;86.68;98484.66;5094924;28;8858;-57
2023/12/22 07:59:05;;;;;;;;;0.25;0.25;;;;;5.70;86.87;98482.72;5094497;28;8818;-56
2023/12/22 08:01:53;;;;;;;;;0.00;0.00;;;;;5.70;86.72;98475.59;5096525;28;9499;-57
2023/12/22 08:04:21;;;;;;;;;0.25;0.25;;;;;5.72;86.83;98467.56;5095592;28;8846;-55
2023/12/22 08:06:49;;;;;;;;;0.00;0.00;;;;;5.73;86.81;98474.50;5103183;28;8808;-57
2023/12/22 08:09:16;;;;;;;;;1.50;1.00;;;;;5.76;86.89;98469.00;5115635;28;9762;-57
2023/12/22 08:11:46;;;;;;;;;0.00;0.00;;;;;5.78;86.72;98461.78;5108779;28;8836;-57
2023/12/22 08:14:14;;;;;;;;;1.75;1.75;;;;;5.81;86.76;98456.25;5115334;28;8962;-55
2023/12/22 08:16:44;;;;;;;;;0.75;0.75;;;;;5.84;86.83;98464.75;5115328;28;8846;-58
2023/12/22 08:19:12;;;;;;;;;0.00;0.00;;;;;5.89;87.40;98444.09;5115665;28;8920;-57
2023/12/22 08:21:41;;;;;;;;;0.00;0.00;;;;;5.91;86.37;98438.69;5115526;28;8828;-56
2023/12/22 08:24:13;;;;;;;;;0.75;0.75;;;;;5.95;86.87;98448.88;5098550;28;8818;-56
2023/12/22 08:26:49;;;;;;;;;0.75;0.75;;;;;6.00;86.43;98437.91;5094223;28;8818;-57
2023/12/22 08:29:18;;;;;;;;;0.00;0.00;;;;;6.05;86.65;98440.97;5074634;28;8824;-57
2023/12/22 08:31:47;;;;;;;;;0.00;0.00;;;;;6.11;86.70;98419.31;5076891;28;8856;-55
2023/12/22 08:34:17;;;;;;;;;3.00;2.00;;;;;6.16;86.38;98432.97;5080870;28;9010;-57
2023/12/22 08:36:46;;;;;;;;;0.00;0.00;;;;;6.20;86.98;98411.44;5079452;28;8838;-58
2023/12/22 08:39:17;;;;;;;;;3.00;1.75;;;;;6.26;86.96;98413.56;5079886;28;8893;-58
2023/12/22 08:41:46;;;;;;;;;0.50;0.50;;;;;6.32;86.07;98402.47;5077299;28;9521;-57
2023/12/22 08:44:14;;;;;;;;;2.00;0.50;;;;;6.43;86.62;98418.19;5074778;28;8937;-56
2023/12/22 08:46:42;;;;;;;;;0.00;0.00;;;;;6.53;86.43;98426.19;5074779;28;8824;-58
2023/12/22 08:49:10;;;;;;;;;1.00;1.00;;;;;6.59;86.45;98420.34;5077914;28;8824;-57
2023/12/22 08:51:38;;;;;;;;;0.50;0.50;;;;;6.65;86.60;98428.56;5078020;28;8915;-56
2023/12/22 08:54:06;;;;;;;;;0.50;0.50;;;;;6.73;85.97;98425.25;5078115;28;8831;-58
2023/12/22 08:56:35;;;;;;;;;1.50;1.00;;;;;6.82;86.45;98437.69;5077856;28;8862;-56
2023/12/22 08:59:03;;;;;;;;;3.50;3.50;;;;;6.96;86.23;98438.13;5079541;28;8836;-56
2023/12/22 09:01:31;;;;;;;;;0.75;0.75;;;;;7.15;85.87;98448.75;5097198;28;8860;-56
2023/12/22 09:03:59;;;;;;;;;1.00;1.00;;;;;7.34;85.80;98459.34;5097373;28;8846;-56
2023/12/22 09:06:27;;;;;;;;;0.00;0.00;;;;;7.50;84.97;98461.44;5096007;28;8883;-58
2023/12/22 09:08:55;;;;;;;;;0.50;0.00;;;;;7.57;85.04;98451.97;5101407;28;8847;-57
2023/12/22 09:11:23;;;;;;;;;3.00;2.50;;;;;7.55;85.38;98456.53;5107741;28;8816;-57
2023/12/22 09:13:50;;;;;;;;;0.75;0.75;;;;;7.54;84.99;98452.22;5117858;28;8827;-56
2023/12/22 09:16:19;;;;;;;;;1.50;1.00;;;;;7.55;84.72;98441.50;5100104;28;8928;-57
2023/12/22 09:18:46;;;;;;;;;0.00;0.00;;;;;7.58;85.63;98448.34;5088613;28;8910;-56
2023/12/22 09:21:14;;;;;;;;;2.50;1.00;;;;;7.64;85.12;98453.09;5076940;28;8824;-58
2023/12/22 09:23:45;;;;;;;;;3.25;2.75;;;;;7.68;84.93;98460.59;5077066;28;8847;-56
2023/12/22 09:26:13;;;;;;;;;2.50;0.00;;;;;7.73;84.53;98451.25;5077028;28;8836;-56
2023/12/22 09:28:42;;;;;;;;;0.50;0.50;;;;;7.78;84.97;98451.69;5115334;28;9512;-57
2023/12/22 09:31:10;;;;;;;;;2.00;1.00;;;;;7.83;84.66;98464.50;5117145;28;8854;-56
2023/12/22 09:33:38;;;;;;;;;0.50;0.50;;;;;7.89;84.71;98456.81;5117943;28;9991;-57
2023/12/22 09:36:06;;;;;;;;;2.00;1.00;;;;;7.95;84.41;98445.66;5093842;28;8909;-56
2023/12/22 09:38:34;;;;;;;;;1.00;0.25;;;;;8.00;84.64;98445.22;5076849;28;8955;-57
2023/12/22 09:41:02;;;;;;;;;4.00;3.00;;;;;8.02;84.33;98456.50;5076727;28;8848;-57
2023/12/22 09:43:30;;;;;;;;;2.50;1.00;;;;;8.04;84.97;98451.88;5076434;28;8829;-57
2023/12/22 09:45:59;;;;;;;;;3.50;2.25;;;;;8.02;84.67;98446.75;5076841;28;8962;-58
2023/12/22 09:48:28;;;;;;;;;1.50;1.50;;;;;7.95;84.51;98450.09;5076107;28;8820;-56
2023/12/22 09:50:56;;;;;;;;;0.25;0.25;;;;;7.86;84.89;98459.75;5076157;28;8824;-56
2023/12/22 09:53:24;;;;;;;;;0.75;0.25;;;;;7.76;84.83;98461.56;5077281;28;8832;-57
2023/12/22 09:55:51;;;;;;;;;3.50;1.50;;;;;7.68;85.15;98457.09;5075736;28;8870;-58
2023/12/22 09:58:19;;;;;;;;;0.50;0.50;;;;;7.58;85.45;98437.75;5075149;28;8828;-56
2023/12/22 10:00:47;;;;;;;;;2.00;2.00;;;;;7.50;85.86;98435.78;5075023;28;8828;-56
2023/12/22 10:03:15;;;;;;;;;1.00;1.00;;;;;7.42;85.45;98427.69;5078559;28;8956;-57
2023/12/22 10:05:44;;;;;;;;;3.00;3.00;;;;;7.29;85.70;98419.19;5096273;28;8830;-58
2023/12/22 10:08:12;;;;;;;;;3.00;3.00;;;;;7.22;86.29;98428.69;5096777;28;8838;-57
2023/12/22 10:10:41;;;;;;;;;1.00;1.00;;;;;7.16;86.37;98433.69;5093195;28;8826;-57
2023/12/22 10:13:09;;;;;;;;;2.75;2.50;;;;;7.11;86.57;98446.47;5096060;28;8824;-56
2023/12/22 10:15:37;;;;;;;;;1.00;1.00;;;;;7.07;86.51;98447.75;5096470;28;8806;-58
2023/12/22 10:18:05;;;;;;;;;1.50;0.25;;;;;7.03;87.23;98452.47;5099616;28;8879;-58
2023/12/22 10:20:34;;;;;;;;;0.50;0.00;;;;;6.99;86.71;98439.66;5105210;28;9783;-56
2023/12/22 10:23:02;;;;;;;;;1.00;1.00;;;;;6.97;87.25;98421.25;5093790;28;8829;-57
2023/12/22 10:25:30;;;;;;;;;0.50;0.50;;;;;6.96;86.99;98416.94;5095176;28;8841;-58
2023/12/22 10:27:58;;;;;;;;;0.50;0.50;;;;;6.95;87.09;98417.06;5095241;28;8963;-58
2023/12/22 10:30:27;;;;;;;;;0.00;0.00;;;;;6.95;86.86;98402.03;5095551;28;8814;-57
2023/12/22 10:32:55;;;;;;;;;0.00;0.00;;;;;6.98;87.12;98407.06;5095129;28;8863;-57
2023/12/22 10:35:24;;;;;;;;;0.00;0.00;;;;;7.03;87.04;98409.28;5094960;28;8829;-58
2023/12/22 10:37:53;;;;;;;;;1.00;1.00;;;;;7.06;86.85;98409.84;5094643;28;8874;-58
2023/12/22 10:40:22;;;;;;;;;1.00;1.00;;;;;7.13;87.20;98391.63;5094841;28;8822;-56
2023/12/22 10:42:50;;;;;;;;;2.00;2.00;;;;;7.16;86.50;98373.66;5097044;28;8869;-58
2023/12/22 10:45:18;;;;;;;;;1.00;1.00;;;;;7.18;86.75;98386.72;5074663;28;8990;-58
2023/12/22 10:47:50;;;;;;;;;4.00;3.00;;;;;7.18;86.74;98373.50;5091441;28;8892;-58
2023/12/22 10:50:19;;;;;;;;;0.00;0.00;;;;;7.18;87.26;98381.44;5115302;28;8890;-57
2023/12/22 10:52:47;;;;;;;;;1.00;0.00;;;;;7.18;87.07;98381.44;5115302;28;8823;-57
2023/12/22 10:55:15;;;;;;;;;2.00;2.00;;;;;7.15;86.78;98376.44;5115677;28;8862;-56
2023/12/22 10:57:43;;;;;;;;;1.50;1.50;;;;;7.13;86.61;98384.50;5115442;28;8835;-55
2023/12/22 11:00:12;;;;;;;;;1.00;1.00;;;;;7.12;87.49;98379.38;5100384;28;8874;-57
2023/12/22 11:02:39;;;;;;;;;0.00;0.00;;;;;7.12;86.87;98372.25;5074461;28;9522;-58
2023/12/22 11:05:08;;;;;;;;;0.50;0.50;;;;;7.12;87.24;98376.72;5074346;28;9339;-58
2023/12/22 11:07:37;;;;;;;;;1.50;1.00;;;;;7.13;87.30;98375.75;5074445;28;8828;-56
2023/12/22 11:10:06;;;;;;;;;0.00;0.00;;;;;7.14;87.39;98394.09;5073081;28;8877;-56
2023/12/22 11:12:34;;;;;;;;;0.25;0.25;;;;;7.16;87.31;98375.44;5074293;28;8929;-57
2023/12/22 11:15:03;;;;;;;;;3.75;3.00;;;;;7.17;87.41;98366.53;5073933;28;8982;-56
2023/12/22 11:17:31;;;;;;;;;2.00;2.00;;;;;7.21;87.63;98381.19;5074503;28;8840;-57
2023/12/22 11:19:59;;;;;;;;;1.00;1.00;;;;;7.24;87.79;98365.00;5074062;28;8866;-56
2023/12/22 11:22:27;;;;;;;;;3.25;2.00;;;;;7.30;87.75;98367.94;5073497;28;8824;-57
2023/12/22 11:24:56;;;;;;;;;1.00;1.00;;;;;7.34;87.26;98381.75;5073874;28;8874;-57
2023/12/22 11:27:24;;;;;;;;;1.00;0.00;;;;;7.38;87.31;98375.16;5074695;28;8844;-57
2023/12/22 11:29:52;;;;;;;;;0.00;0.00;;;;;7.39;87.76;98364.44;5074560;28;8954;-56
2023/12/22 11:32:21;;;;;;;;;0.50;0.50;;;;;7.43;87.78;98351.75;5074187;28;8874;-57
2023/12/22 11:34:48;;;;;;;;;1.00;1.00;;;;;7.47;87.58;98366.38;5074512;28;8828;-57
2023/12/22 11:37:17;;;;;;;;;0.25;0.25;;;;;7.47;87.44;98355.78;5089023;28;8814;-55
2023/12/22 11:39:44;;;;;;;;;0.00;0.00;;;;;7.48;87.53;98368.03;5094531;28;8864;-55
2023/12/22 11:42:12;;;;;;;;;0.00;0.00;;;;;7.47;87.96;98376.97;5094859;28;8876;-56
2023/12/22 11:44:40;;;;;;;;;0.50;0.50;;;;;7.46;87.59;98364.72;5093734;28;8845;-57
2023/12/22 11:47:09;;;;;;;;;0.00;0.00;;;;;7.46;87.49;98372.66;5093992;28;8848;-57
2023/12/22 11:49:37;;;;;;;;;0.00;0.00;;;;;7.43;87.54;98389.66;5093327;28;8822;-56
2023/12/22 11:52:05;;;;;;;;;0.00;0.00;;;;;7.42;88.00;98389.81;5093201;28;8939;-56
2023/12/22 11:54:33;;;;;;;;;1.00;0.50;;;;;7.44;87.90;98371.97;5093922;28;8846;-58
2023/12/22 11:57:01;;;;;;;;;0.00;0.00;;;;;7.45;87.75;98377.13;5091832;28;8838;-57